Wetterstation Vordersexau
Wetterdaten: Woche 03.01.11 - 09.01.11 (KW1)
Datum Zeit Temp. A. Feuchte A. Luftdruck Regen Wind Richtung Taupunkt Windchill Windben
03.01.2011 00:00 -2,4 C 89 % 1022,7 hPa 0,0 l/m 0,0 km/h O-SO -4,0 C -2,4 C 0,0 km/h
03.01.2011 01:00 -2,2 C 88 % 1022,4 hPa 0,0 l/m 0,0 km/h SO -3,9 C -2,2 C 0,0 km/h
03.01.2011 02:00 -2,4 C 89 % 1022,3 hPa 0,0 l/m 0,0 km/h O -4,0 C -2,4 C 0,0 km/h
03.01.2011 03:00 -3,5 C 89 % 1022,5 hPa 0,0 l/m 0,0 km/h O -5,0 C -3,5 C 0,0 km/h
03.01.2011 04:00 -4,2 C 89 % 1022,4 hPa 0,0 l/m 0,0 km/h NO -5,7 C -4,2 C 0,0 km/h
03.01.2011 05:00 -4,8 C 89 % 1022,6 hPa 0,0 l/m 0,0 km/h NO -6,3 C -4,8 C 0,0 km/h
03.01.2011 06:00 -5,1 C 90 % 1022,6 hPa 0,0 l/m 0,0 km/h NO -6,5 C -5,1 C 0,0 km/h
03.01.2011 07:00 -5,4 C 90 % 1022,4 hPa 0,0 l/m 0,0 km/h SO -6,8 C -5,4 C 0,0 km/h
03.01.2011 08:00 -5,5 C 90 % 1022,6 hPa 0,0 l/m 0,0 km/h NO -6,9 C -5,5 C 0,0 km/h
03.01.2011 09:00 -2,1 C 88 % 1022,7 hPa 0,0 l/m 0,0 km/h NO -3,8 C -2,1 C 0,0 km/h
03.01.2011 10:00 2,3 C 88 % 1022,9 hPa 0,0 l/m 0,0 km/h W-NW 0,5 C 2,3 C 0,0 km/h
03.01.2011 11:00 3,3 C 79 % 1022,7 hPa 0,0 l/m 0,0 km/h W 0,0 C 3,3 C 0,0 km/h
03.01.2011 12:00 3,1 C 78 % 1022,0 hPa 0,0 l/m 0,0 km/h W-NW -0,4 C 3,1 C 0,0 km/h
03.01.2011 13:00 3,3 C 78 % 1021,3 hPa 0,4 l/m 0,0 km/h NW -0,2 C 3,3 C 0,0 km/h
03.01.2011 14:00 4,5 C 74 % 1021,1 hPa 0,0 l/m 0,0 km/h W-NW 0,3 C 4,5 C 0,0 km/h
03.01.2011 15:00 4,4 C 72 % 1021,0 hPa 0,0 l/m 0,0 km/h W -0,2 C 4,4 C 0,0 km/h
03.01.2011 16:00 1,1 C 79 % 1020,8 hPa 0,0 l/m 0,0 km/h W-SW -2,1 C 1,1 C 0,0 km/h
03.01.2011 17:00 -2,1 C 88 % 1020,8 hPa 0,0 l/m 0,0 km/h W-NW -3,8 C -2,1 C 0,0 km/h
03.01.2011 18:00 -2,7 C 89 % 1020,9 hPa 0,0 l/m 0,0 km/h W-NW -4,3 C -2,7 C 0,0 km/h
03.01.2011 19:00 -2,5 C 89 % 1021,0 hPa 0,0 l/m 0,0 km/h SO -4,1 C -2,5 C 0,0 km/h
03.01.2011 20:00 -2,2 C 89 % 1020,7 hPa 0,0 l/m 0,0 km/h SO -3,8 C -2,2 C 0,0 km/h
03.01.2011 21:00 -3,8 C 89 % 1020,2 hPa 0,0 l/m 0,0 km/h S-SW -5,3 C -3,8 C 0,0 km/h
03.01.2011 22:00 -3,2 C 89 % 1020,3 hPa 0,0 l/m 0,0 km/h SO -4,7 C -3,2 C 0,0 km/h
03.01.2011 23:00 -2,9 C 89 % 1020,2 hPa 0,0 l/m 5,2 km/h SO -4,5 C -2,9 C 2,9 km/h
04.01.2011 00:00 -3,5 C 90 % 1020,3 hPa 0,0 l/m 1,9 km/h SO -4,9 C -3,5 C 1,1 km/h
04.01.2011 01:00 -3,1 C 89 % 1019,9 hPa 0,0 l/m 1,9 km/h SO -4,6 C -3,1 C 1,1 km/h
04.01.2011 02:00 -3,1 C 89 % 1019,6 hPa 0,0 l/m 0,0 km/h SO -4,6 C -3,1 C 0,0 km/h
04.01.2011 03:00 -3,2 C 90 % 1019,5 hPa 0,0 l/m 1,9 km/h O-SO -4,6 C -3,2 C 1,1 km/h
04.01.2011 04:00 -4,1 C 89 % 1019,0 hPa 0,0 l/m 0,0 km/h SO -5,6 C -4,1 C 0,0 km/h
04.01.2011 05:00 -4,7 C 90 % 1018,7 hPa 0,0 l/m 0,0 km/h SO -6,1 C -4,7 C 0,0 km/h
04.01.2011 06:00 -4,7 C 90 % 1018,1 hPa 0,0 l/m 0,0 km/h SO -6,1 C -4,7 C 0,0 km/h
04.01.2011 07:00 -5,2 C 90 % 1017,8 hPa 0,0 l/m 0,0 km/h SO -6,6 C -5,2 C 0,0 km/h
04.01.2011 08:00 -5,4 C 89 % 1018,2 hPa 0,0 l/m 0,0 km/h S-SO -6,9 C -5,4 C 0,0 km/h
04.01.2011 09:00 -5,2 C 89 % 1018,3 hPa 0,0 l/m 11,7 km/h SO -6,7 C -10,7 C 6,5 km/h
04.01.2011 10:00 -4,2 C 89 % 1018,3 hPa 0,0 l/m 11,0 km/h O-SO -5,7 C -9,0 C 6,1 km/h
04.01.2011 11:00 0,4 C 84 % 1017,9 hPa 0,0 l/m 0,0 km/h W -2,0 C 0,4 C 0,0 km/h
04.01.2011 12:00 1,6 C 76 % 1017,1 hPa 0,0 l/m 0,0 km/h W -2,2 C 1,6 C 0,0 km/h
04.01.2011 13:00 1,3 C 76 % 1016,3 hPa 0,0 l/m 0,0 km/h W-NW -2,5 C 1,3 C 0,0 km/h
04.01.2011 14:00 -0,8 C 79 % 1015,9 hPa 0,0 l/m 0,0 km/h N-NO -4,0 C -0,8 C 0,0 km/h
04.01.2011 15:00 1,8 C 74 % 1016,1 hPa 0,0 l/m 0,0 km/h NW -2,3 C 1,8 C 0,0 km/h
04.01.2011 16:00 -1,7 C 80 % 1015,7 hPa 0,0 l/m 0,0 km/h W-NW -4,7 C -1,7 C 0,0 km/h
04.01.2011 17:00 -3,3 C 86 % 1016,0 hPa 0,0 l/m 0,0 km/h W -5,3 C -3,3 C 0,0 km/h
04.01.2011 18:00 -3,1 C 87 % 1016,4 hPa 0,0 l/m 0,0 km/h W -4,9 C -3,1 C 0,0 km/h
04.01.2011 19:00 -3,1 C 87 % 1016,2 hPa 0,0 l/m 0,0 km/h SO -4,9 C -3,1 C 0,0 km/h
04.01.2011 20:00 -2,8 C 87 % 1016,1 hPa 0,0 l/m 0,0 km/h O -4,7 C -2,8 C 0,0 km/h
04.01.2011 21:00 -2,7 C 87 % 1015,9 hPa 0,0 l/m 0,0 km/h SO -4,6 C -2,7 C 0,0 km/h
04.01.2011 22:00 -2,8 C 87 % 1015,6 hPa 0,0 l/m 0,0 km/h O-NO -4,7 C -2,8 C 0,0 km/h
04.01.2011 23:00 -2,8 C 88 % 1015,3 hPa 0,0 l/m 0,0 km/h SW -4,5 C -2,8 C 0,0 km/h
05.01.2011 00:00 -2,1 C 85 % 1015,3 hPa 0,0 l/m 3,9 km/h SW -4,3 C -2,1 C 2,2 km/h
05.01.2011 01:00 -2,1 C 83 % 1014,9 hPa 0,0 l/m 1,3 km/h W-NW -4,6 C -2,1 C 0,7 km/h
05.01.2011 02:00 -2,7 C 86 % 1015,1 hPa 0,0 l/m 0,0 km/h NW -4,7 C -2,7 C 0,0 km/h
05.01.2011 03:00 -3,1 C 86 % 1014,9 hPa 0,0 l/m 0,0 km/h N -5,1 C -3,1 C 0,0 km/h
05.01.2011 04:00 -5,1 C 88 % 1014,5 hPa 0,0 l/m 0,0 km/h O-NO -6,8 C -5,1 C 0,0 km/h
05.01.2011 05:00 -5,9 C 89 % 1014,1 hPa 0,0 l/m 0,0 km/h O -7,4 C -5,9 C 0,0 km/h
05.01.2011 06:00 -4,7 C 89 % 1013,9 hPa 0,0 l/m 0,0 km/h O -6,2 C -4,7 C 0,0 km/h
05.01.2011 07:00 -4,1 C 89 % 1013,4 hPa 0,0 l/m 0,0 km/h N-NW -5,6 C -4,1 C 0,0 km/h
05.01.2011 08:00 -3,6 C 89 % 1013,4 hPa 0,0 l/m 0,0 km/h N-NW -5,1 C -3,6 C 0,0 km/h
05.01.2011 09:00 -0,1 C 86 % 1012,7 hPa 0,0 l/m 0,0 km/h NW -2,2 C -0,1 C 0,0 km/h
05.01.2011 10:00 2,8 C 77 % 1012,4 hPa 0,0 l/m 0,0 km/h N -0,8 C 2,8 C 0,0 km/h
05.01.2011 11:00 4,5 C 67 % 1011,5 hPa 0,0 l/m 0,0 km/h W-SW -1,1 C 4,5 C 0,0 km/h
05.01.2011 12:00 3,8 C 67 % 1010,8 hPa 0,0 l/m 0,0 km/h W -1,8 C 3,8 C 0,0 km/h
05.01.2011 13:00 3,6 C 68 % 1010,1 hPa 0,0 l/m 0,0 km/h W -1,7 C 3,6 C 0,0 km/h
05.01.2011 14:00 5,4 C 64 % 1009,7 hPa 0,0 l/m 0,0 km/h W-SW -0,9 C 5,4 C 0,0 km/h
05.01.2011 15:00 6,4 C 61 % 1008,8 hPa 0,4 l/m 0,0 km/h W -0,6 C 6,4 C 0,0 km/h
05.01.2011 16:00 3,9 C 67 % 1008,8 hPa 0,0 l/m 0,0 km/h SO -1,7 C 3,9 C 0,0 km/h
05.01.2011 17:00 -2,1 C 83 % 1008,5 hPa 0,0 l/m 0,0 km/h O-SO -4,6 C -2,1 C 0,0 km/h
05.01.2011 18:00 -1,8 C 87 % 1008,3 hPa 0,0 l/m 0,0 km/h N-NW -3,7 C -1,8 C 0,0 km/h
05.01.2011 19:00 -1,5 C 87 % 1008,1 hPa 0,0 l/m 0,0 km/h NO -3,4 C -1,5 C 0,0 km/h
05.01.2011 20:00 -1,2 C 88 % 1007,3 hPa 0,0 l/m 0,0 km/h N-NO -2,9 C -1,2 C 0,0 km/h
05.01.2011 21:00 -1,4 C 88 % 1006,5 hPa 0,0 l/m 0,0 km/h O-SO -3,1 C -1,4 C 0,0 km/h
05.01.2011 22:00 -2,1 C 89 % 1006,5 hPa 0,0 l/m 0,0 km/h SO -3,7 C -2,1 C 0,0 km/h
05.01.2011 23:00 -1,4 C 89 % 1005,8 hPa 0,0 l/m 3,9 km/h SO -3,0 C -1,4 C 2,2 km/h
06.01.2011 00:00 -0,9 C 88 % 1005,3 hPa 0,0 l/m 0,0 km/h O-SO -2,6 C -0,9 C 0,0 km/h
06.01.2011 01:00 -0,1 C 88 % 1004,2 hPa 0,0 l/m 0,0 km/h NO -1,8 C -0,1 C 0,0 km/h
06.01.2011 02:00 0,7 C 87 % 1004,1 hPa 0,0 l/m 0,0 km/h O-SO -1,2 C 0,7 C 0,0 km/h
06.01.2011 03:00 0,9 C 88 % 1003,9 hPa 0,0 l/m 0,0 km/h O-NO -0,9 C 0,9 C 0,0 km/h
06.01.2011 04:00 1,3 C 88 % 1003,5 hPa 0,0 l/m 0,0 km/h NO -0,5 C 1,3 C 0,0 km/h
06.01.2011 05:00 1,5 C 88 % 1003,2 hPa 0,0 l/m 0,0 km/h N-NO -0,3 C 1,5 C 0,0 km/h
06.01.2011 06:00 2,4 C 88 % 1003,4 hPa 0,0 l/m 0,0 km/h O-SO 0,6 C 2,4 C 0,0 km/h
06.01.2011 07:00 3,0 C 87 % 1004,2 hPa 0,4 l/m 0,0 km/h NO 1,1 C 3,0 C 0,0 km/h
06.01.2011 08:00 3,4 C 87 % 1004,0 hPa 0,0 l/m 2,6 km/h S-SO 1,4 C 3,4 C 1,4 km/h
06.01.2011 09:00 3,8 C 87 % 1004,0 hPa 0,0 l/m 0,0 km/h W-SW 1,8 C 3,8 C 0,0 km/h
06.01.2011 10:00 6,5 C 88 % 1004,1 hPa 0,0 l/m 34,3 km/h SW 4,7 C -5,2 C 19,1 km/h
06.01.2011 11:00 9,6 C 78 % 1003,5 hPa 0,0 l/m 0,0 km/h W 6,0 C 9,6 C 0,0 km/h
06.01.2011 12:00 9,5 C 76 % 1003,7 hPa 0,0 l/m 4,5 km/h W 5,5 C 9,5 C 2,5 km/h
06.01.2011 13:00 9,3 C 78 % 1003,3 hPa 0,0 l/m 0,0 km/h SW 5,7 C 9,3 C 0,0 km/h
06.01.2011 14:00 9,3 C 79 % 1003,1 hPa 0,0 l/m 8,4 km/h NO 5,8 C 7,8 C 4,7 km/h
06.01.2011 15:00 7,9 C 85 % 1002,8 hPa 0,0 l/m 0,0 km/h NO 5,5 C 7,9 C 0,0 km/h
06.01.2011 16:00 7,2 C 88 % 1002,7 hPa 0,0 l/m 2,6 km/h W 5,3 C 7,2 C 1,4 km/h
06.01.2011 17:00 7,9 C 88 % 1003,3 hPa 0,0 l/m 3,2 km/h W 6,0 C 7,9 C 1,8 km/h
06.01.2011 18:00 10,5 C 81 % 1003,7 hPa 0,0 l/m 11,0 km/h NW 7,4 C 7,6 C 6,1 km/h
06.01.2011 19:00 10,6 C 81 % 1004,5 hPa 0,0 l/m 12,3 km/h N-NO 7,5 C 7,1 C 6,8 km/h
06.01.2011 20:00 9,4 C 82 % 1004,7 hPa 0,0 l/m 0,0 km/h SW 6,5 C 9,4 C 0,0 km/h
06.01.2011 21:00 10,2 C 82 % 1005,4 hPa 0,0 l/m 0,0 km/h W 7,3 C 10,2 C 0,0 km/h
06.01.2011 22:00 9,8 C 84 % 1005,8 hPa 0,0 l/m 0,0 km/h W-SW 7,2 C 9,8 C 0,0 km/h
06.01.2011 23:00 11,2 C 81 % 1006,4 hPa 0,0 l/m 21,4 km/h W 8,1 C 4,4 C 11,9 km/h
07.01.2011 00:00 10,9 C 81 % 1007,0 hPa 0,0 l/m 17,5 km/h S 7,8 C 5,3 C 9,7 km/h
07.01.2011 01:00 9,4 C 87 % 1007,5 hPa 0,4 l/m 5,8 km/h S-SO 7,3 C 9,4 C 3,2 km/h
07.01.2011 02:00 9,6 C 87 % 1007,9 hPa 0,0 l/m 24,6 km/h S-SW 7,5 C 1,4 C 13,7 km/h
07.01.2011 03:00 10,9 C 84 % 1008,4 hPa 0,0 l/m 15,6 km/h S-SO 8,3 C 6,0 C 8,6 km/h
07.01.2011 04:00 10,6 C 85 % 1008,5 hPa 0,0 l/m 0,0 km/h O-NO 8,2 C 10,6 C 0,0 km/h
07.01.2011 05:00 9,4 C 87 % 1008,7 hPa 0,4 l/m 0,0 km/h S 7,3 C 9,4 C 0,0 km/h
07.01.2011 06:00 9,5 C 87 % 1008,9 hPa 0,4 l/m 4,5 km/h NO 7,4 C 9,5 C 2,5 km/h
07.01.2011 07:00 9,1 C 86 % 1009,2 hPa 0,0 l/m 3,9 km/h NO 6,9 C 9,1 C 2,2 km/h
07.01.2011 08:00 8,9 C 85 % 1009,2 hPa 0,7 l/m 0,0 km/h O-NO 6,5 C 8,9 C 0,0 km/h
07.01.2011 09:00 9,1 C 84 % 1009,4 hPa 0,4 l/m 0,0 km/h SO 6,5 C 9,1 C 0,0 km/h
07.01.2011 10:00 9,5 C 83 % 1008,7 hPa 0,7 l/m 0,0 km/h SO 6,8 C 9,5 C 0,0 km/h
07.01.2011 11:00 12,0 C 82 % 1008,5 hPa 0,0 l/m 0,0 km/h SO 9,0 C 12,0 C 0,0 km/h
07.01.2011 12:00 12,6 C 87 % 1007,9 hPa 0,0 l/m 0,0 km/h S-SO 10,5 C 12,6 C 0,0 km/h
07.01.2011 13:00 12,1 C 87 % 1008,0 hPa 0,0 l/m 0,0 km/h O-NO 10,0 C 12,1 C 0,0 km/h
07.01.2011 14:00 10,9 C 87 % 1008,2 hPa 0,0 l/m 0,0 km/h O-SO 8,8 C 10,9 C 0,0 km/h
07.01.2011 15:00 10,5 C 87 % 1008,0 hPa 0,0 l/m 0,0 km/h O-SO 8,4 C 10,5 C 0,0 km/h
07.01.2011 16:00 10,8 C 88 % 1008,3 hPa 0,0 l/m 0,0 km/h NO 8,9 C 10,8 C 0,0 km/h
07.01.2011 17:00 10,6 C 88 % 1008,6 hPa 0,0 l/m 0,0 km/h SO 8,7 C 10,6 C 0,0 km/h
07.01.2011 18:00 10,1 C 88 % 1008,9 hPa 0,4 l/m 0,0 km/h NO 8,2 C 10,1 C 0,0 km/h
07.01.2011 19:00 10,1 C 87 % 1008,8 hPa 0,0 l/m 7,1 km/h NO 8,0 C 9,6 C 4,0 km/h
07.01.2011 20:00 9,6 C 87 % 1008,9 hPa 0,0 l/m 1,3 km/h O-SO 7,5 C 9,6 C 0,7 km/h
07.01.2011 21:00 9,6 C 86 % 1009,0 hPa 0,0 l/m 0,0 km/h SO 7,4 C 9,6 C 0,0 km/h
07.01.2011 22:00 9,6 C 86 % 1009,4 hPa 0,0 l/m 0,0 km/h SO 7,4 C 9,6 C 0,0 km/h
07.01.2011 23:00 9,9 C 85 % 1009,6 hPa 0,7 l/m 18,8 km/h S-SO 7,5 C 3,6 C 10,4 km/h
08.01.2011 00:00 10,9 C 85 % 1009,2 hPa 0,7 l/m 24,6 km/h N-NO 8,5 C 3,2 C 13,7 km/h
08.01.2011 01:00 10,6 C 88 % 1009,2 hPa 0,0 l/m 0,0 km/h SO 8,7 C 10,6 C 0,0 km/h
08.01.2011 02:00 9,8 C 87 % 1009,6 hPa 0,0 l/m 0,0 km/h W-SW 7,7 C 9,8 C 0,0 km/h
08.01.2011 03:00 11,8 C 85 % 1010,4 hPa 0,0 l/m 27,9 km/h S-SO 9,4 C 3,6 C 15,5 km/h
08.01.2011 04:00 10,8 C 88 % 1010,6 hPa 0,4 l/m 25,3 km/h S 8,9 C 2,8 C 14,0 km/h
08.01.2011 05:00 10,5 C 88 % 1010,2 hPa 0,7 l/m 12,3 km/h NO 8,6 C 6,9 C 6,8 km/h
08.01.2011 06:00 9,5 C 88 % 1010,0 hPa 0,0 l/m 0,0 km/h O-NO 7,6 C 9,5 C 0,0 km/h
08.01.2011 07:00 8,8 C 87 % 1010,1 hPa 0,0 l/m 0,0 km/h NO 6,8 C 8,8 C 0,0 km/h
08.01.2011 08:00 8,8 C 87 % 1010,2 hPa 0,0 l/m 0,0 km/h NO 6,8 C 8,8 C 0,0 km/h
08.01.2011 09:00 9,3 C 86 % 1010,3 hPa 0,0 l/m 1,9 km/h N-NO 7,1 C 9,3 C 1,1 km/h
08.01.2011 10:00 10,3 C 86 % 1010,3 hPa 0,0 l/m 0,0 km/h NO 8,1 C 10,3 C 0,0 km/h
08.01.2011 11:00 12,1 C 88 % 1010,5 hPa 0,0 l/m 0,0 km/h W-NW 10,2 C 12,1 C 0,0 km/h
08.01.2011 12:00 13,9 C 76 % 1010,0 hPa 0,0 l/m 0,0 km/h W 9,7 C 13,9 C 0,0 km/h
08.01.2011 13:00 14,1 C 76 % 1009,6 hPa 0,0 l/m 0,0 km/h SW 9,9 C 14,1 C 0,0 km/h
08.01.2011 14:00 16,4 C 66 % 1009,0 hPa 0,0 l/m 1,9 km/h SW 10,0 C 16,4 C 1,1 km/h
08.01.2011 15:00 15,1 C 71 % 1009,4 hPa 0,0 l/m 0,0 km/h W-SW 9,9 C 15,1 C 0,0 km/h
08.01.2011 16:00 13,2 C 73 % 1009,8 hPa 0,0 l/m 0,0 km/h W 8,5 C 13,2 C 0,0 km/h
08.01.2011 17:00 11,1 C 79 % 1009,6 hPa 0,0 l/m 0,0 km/h O 7,6 C 11,1 C 0,0 km/h
08.01.2011 18:00 9,8 C 84 % 1009,0 hPa 0,0 l/m 0,0 km/h O-NO 7,2 C 9,8 C 0,0 km/h
08.01.2011 19:00 8,9 C 86 % 1009,2 hPa 0,0 l/m 0,0 km/h NO 6,7 C 8,9 C 0,0 km/h
08.01.2011 20:00 8,3 C 87 % 1009,1 hPa 0,0 l/m 0,0 km/h O-SO 6,3 C 8,3 C 0,0 km/h
08.01.2011 21:00 8,2 C 87 % 1008,9 hPa 0,0 l/m 0,0 km/h NO 6,2 C 8,2 C 0,0 km/h
08.01.2011 22:00 7,9 C 88 % 1008,8 hPa 0,0 l/m 0,0 km/h O-SO 6,0 C 7,9 C 0,0 km/h
08.01.2011 23:00 7,6 C 88 % 1008,9 hPa 0,0 l/m 0,0 km/h SO 5,7 C 7,6 C 0,0 km/h
09.01.2011 00:00 7,1 C 88 % 1008,4 hPa 0,0 l/m 0,0 km/h SO 5,2 C 7,1 C 0,0 km/h
09.01.2011 01:00 6,2 C 88 % 1008,5 hPa 0,0 l/m 0,0 km/h SO 4,4 C 6,2 C 0,0 km/h
09.01.2011 02:00 5,8 C 88 % 1008,9 hPa 0,0 l/m 0,0 km/h SO 4,0 C 5,8 C 0,0 km/h
09.01.2011 03:00 6,4 C 88 % 1009,0 hPa 0,0 l/m 0,0 km/h NO 4,6 C 6,4 C 0,0 km/h
09.01.2011 04:00 6,6 C 88 % 1008,4 hPa 0,0 l/m 0,0 km/h NO 4,8 C 6,6 C 0,0 km/h
09.01.2011 05:00 7,2 C 88 % 1008,6 hPa 0,0 l/m 1,9 km/h NO 5,3 C 7,2 C 1,1 km/h
09.01.2011 06:00 8,1 C 85 % 1008,6 hPa 0,0 l/m 1,9 km/h NO 5,7 C 8,1 C 1,1 km/h
09.01.2011 07:00 8,1 C 85 % 1008,7 hPa 0,0 l/m 1,3 km/h S-SW 5,7 C 8,1 C 0,7 km/h
09.01.2011 08:00 8,7 C 82 % 1009,3 hPa 0,0 l/m 3,9 km/h SW 5,8 C 8,7 C 2,2 km/h
09.01.2011 09:00 12,2 C 66 % 1009,8 hPa 0,0 l/m 23,3 km/h W 6,0 C 5,2 C 13,0 km/h
09.01.2011 10:00 9,8 C 82 % 1011,3 hPa 0,4 l/m 11,7 km/h S-SW 6,9 C 6,4 C 6,5 km/h
09.01.2011 11:00 9,9 C 84 % 1011,4 hPa 0,0 l/m 29,2 km/h S 7,3 C 0,7 C 16,2 km/h
09.01.2011 12:00 10,4 C 82 % 1011,2 hPa 0,0 l/m 39,5 km/h SW 7,5 C -0,4 C 22,0 km/h
09.01.2011 13:00 9,6 C 85 % 1011,2 hPa 0,0 l/m 29,2 km/h SW 7,2 C 0,3 C 16,2 km/h
09.01.2011 14:00 8,9 C 87 % 1011,6 hPa 0,7 l/m 8,4 km/h S-SW 6,9 C 7,4 C 4,7 km/h
09.01.2011 15:00 8,6 C 88 % 1012,0 hPa 0,4 l/m 20,7 km/h S 6,7 C 1,2 C 11,5 km/h
09.01.2011 16:00 8,2 C 87 % 1012,3 hPa 0,4 l/m 0,0 km/h S-SO 6,2 C 8,2 C 0,0 km/h
09.01.2011 17:00 7,8 C 87 % 1013,0 hPa 1,1 l/m 0,0 km/h S-SO 5,8 C 7,8 C 0,0 km/h
09.01.2011 18:00 7,6 C 86 % 1013,7 hPa 0,7 l/m 0,0 km/h N-NW 5,4 C 7,6 C 0,0 km/h
09.01.2011 19:00 6,8 C 86 % 1014,3 hPa 1,8 l/m 1,9 km/h N-NW 4,6 C 6,8 C 1,1 km/h
09.01.2011 20:00 5,8 C 87 % 1015,5 hPa 1,1 l/m 0,0 km/h NO 3,8 C 5,8 C 0,0 km/h
09.01.2011 21:00 5,1 C 87 % 1016,3 hPa 0,4 l/m 16,8 km/h NO 3,1 C -1,7 C 9,4 km/h
09.01.2011 22:00 4,6 C 88 % 1017,0 hPa 0,4 l/m 0,0 km/h NO 2,8 C 4,6 C 0,0 km/h
09.01.2011 23:00 4,4 C 88 % 1017,6 hPa 0,0 l/m 0,0 km/h N-NO 2,6 C 4,4 C 0,0 km/h
Min-Datum _ 05.01.11 05.01.11 06.01.11 - 03.01.11 - 05.01.11 04.01.11 03.01.11
_ Min-Zeit 05:30 15:30 16:30 - 00:30 - 05:30 09:30 00:30
Minimum _ -5,9 C 61 % 1002,7 hPa - 0,0 km/h - -7,4 C -10,7 C 0,0 km/h
Max-Datum _ 08.01.11 03.01.11 03.01.11 09.01.11 09.01.11 - 07.01.11 08.01.11 09.01.11
_ Max-Zeit 14:30 06:30 10:30 19:30 12:30 - 12:30 14:30 12:30
Maximum _ 16,4 C 90 % 1022,9 hPa 1,8 l/m 39,5 km/h
SW
- 10,5 C 16,4 C 22,0 km/h
SW
Durchschnitt _ 4,3 C 85 % 1012,0 hPa #13,9 l/m 3,1 km/h SO 1,9 C 3,4 C 1,7 km/h
www.sexauwetter.de